Time;durP1;ratioP1;P1;durP2;ratioP2;P2;SDS_P1;SDS_P2;PMS_P1;PMS_P2;Temp;Humidity;BMP_temperature;BMP_pressure;BME280_temperature;BME280_humidity;BME280_pressure;Samples;Min_cycle;Max_cycle;Signal;HPM_P1;HPM_P2
2021/12/08 00:02:09;;;;;;;13.68;2.13;;;;;;;9.35;66.77;97305.41;4933844;29;20048;-96
2021/12/08 00:04:35;;;;;;;13.57;1.85;;;;;;;9.33;66.15;97302.16;4937396;29;20024;-96
2021/12/08 00:07:02;;;;;;;13.82;1.80;;;;;;;9.22;66.69;97289.44;4936818;29;20096;-96
2021/12/08 00:09:35;;;;;;;21.83;3.80;;;;;;;9.22;66.92;97305.16;4940356;29;20063;-96
2021/12/08 00:14:45;;;;;;;11.55;1.92;;;;;;;9.35;65.41;97322.94;4941931;29;20027;-96
2021/12/08 00:17:10;;;;;;;11.82;1.90;;;;;;;9.48;65.54;97324.00;4930501;29;20028;-96
2021/12/08 00:22:11;;;;;;;19.45;3.53;;;;;;;8.86;68.36;97316.09;5452170;23;20076;-94
2021/12/08 00:34:57;;;;;;;10.15;2.33;;;;;;;9.07;68.10;97339.91;5927535;23;20038;-95
2021/12/08 00:39:59;;;;;;;18.52;2.03;;;;;;;9.17;68.06;97372.91;5390397;23;20059;-96
2021/12/08 00:42:24;;;;;;;17.67;2.70;;;;;;;9.11;67.40;97367.38;4942465;29;20042;-96
2021/12/08 00:44:50;;;;;;;14.63;2.58;;;;;;;8.66;68.96;97360.94;4919332;29;20052;-95
2021/12/08 00:47:16;;;;;;;11.93;2.53;;;;;;;9.14;68.22;97350.50;4908770;29;20402;-96
2021/12/08 00:49:42;;;;;;;11.45;1.88;;;;;;;9.24;68.22;97343.28;4915117;29;20542;-96
2021/12/08 00:52:08;;;;;;;20.50;3.65;;;;;;;9.15;67.87;97351.34;4918101;29;20040;-96
2021/12/08 00:54:34;;;;;;;14.88;2.20;;;;;;;8.99;68.49;97342.56;4912527;29;20043;-96
2021/12/08 00:57:00;;;;;;;21.60;2.55;;;;;;;9.13;68.03;97326.13;4904953;29;20040;-96
2021/12/08 00:59:26;;;;;;;12.35;2.05;;;;;;;9.12;67.84;97340.22;4905369;29;20108;-95
2021/12/08 01:01:51;;;;;;;17.40;2.28;;;;;;;9.21;67.47;97342.78;4904289;29;20052;-96
2021/12/08 01:04:16;;;;;;;15.18;2.22;;;;;;;9.20;67.54;97349.00;4903906;29;20086;-96
2021/12/08 01:06:43;;;;;;;19.05;2.33;;;;;;;9.00;67.90;97353.81;4905099;29;20543;-96
2021/12/08 01:09:09;;;;;;;20.23;2.90;;;;;;;9.27;66.71;97350.78;4913577;29;20041;-96
2021/12/08 01:11:35;;;;;;;20.02;2.60;;;;;;;9.07;67.88;97345.13;4905133;29;20110;-96
2021/12/08 01:14:01;;;;;;;14.43;1.95;;;;;;;8.88;68.51;97350.75;4912096;29;20487;-95
2021/12/08 01:16:27;;;;;;;21.98;2.05;;;;;;;9.12;68.17;97342.00;4906675;29;20044;-95
2021/12/08 01:18:52;;;;;;;12.07;2.20;;;;;;;9.31;67.56;97340.78;4905125;29;20055;-95
2021/12/08 01:21:18;;;;;;;13.43;2.28;;;;;;;9.46;66.52;97354.78;4929970;29;20143;-96
2021/12/08 01:23:44;;;;;;;17.73;3.05;;;;;;;9.35;66.95;97343.88;4929079;29;20039;-96
2021/12/08 01:26:10;;;;;;;26.85;4.05;;;;;;;9.04;68.08;97342.03;4927907;29;20092;-94
2021/12/08 01:28:36;;;;;;;17.80;2.53;;;;;;;9.22;67.44;97365.34;4928827;29;20139;-96
2021/12/08 01:31:04;;;;;;;18.85;2.30;;;;;;;9.27;67.29;97357.81;4907190;29;20036;-95
2021/12/08 01:33:32;;;;;;;16.02;2.88;;;;;;;9.30;67.00;97362.69;4916830;29;20020;-95
2021/12/08 01:35:58;;;;;;;12.32;1.95;;;;;;;9.20;67.69;97365.53;4881828;29;20119;-96
2021/12/08 01:38:24;;;;;;;13.88;1.88;;;;;;;9.32;67.61;97358.09;4911823;29;20058;-96
2021/12/08 01:40:52;;;;;;;13.98;2.45;;;;;;;9.50;66.91;97369.16;4903687;29;20119;-96
2021/12/08 01:43:29;;;;;;;14.63;2.05;;;;;;;9.18;67.55;97382.38;4901555;29;20560;-95
2021/12/08 01:46:01;;;;;;;19.70;2.03;;;;;;;8.62;69.78;97393.66;4915184;29;20028;-95
2021/12/08 01:48:33;;;;;;;9.18;2.03;;;;;;;9.00;69.25;97390.47;4901358;29;20119;-95
2021/12/08 01:51:03;;;;;;;18.90;2.53;;;;;;;8.64;69.90;97389.06;4900943;29;20029;-95
2021/12/08 01:53:29;;;;;;;12.00;2.10;;;;;;;8.79;69.33;97386.59;4914263;29;20036;-95
2021/12/08 01:55:55;;;;;;;14.35;1.98;;;;;;;9.08;67.40;97378.19;4922824;29;20028;-95
2021/12/08 01:58:21;;;;;;;13.02;1.92;;;;;;;9.14;68.19;97371.44;4909699;29;20017;-95
2021/12/08 02:00:52;;;;;;;19.92;2.92;;;;;;;9.32;66.42;97376.44;4920464;29;20035;-96
2021/12/08 02:03:19;;;;;;;11.93;1.52;;;;;;;8.86;67.94;97384.13;4910889;29;20039;-94
2021/12/08 02:05:45;;;;;;;15.43;3.95;;;;;;;9.16;68.04;97389.59;4904892;29;20479;-95
2021/12/08 02:08:11;;;;;;;17.65;2.20;;;;;;;9.00;67.51;97391.28;4915480;29;20028;-94
2021/12/08 02:10:38;;;;;;;18.65;2.95;;;;;;;9.09;67.56;97385.03;4924749;29;20067;-95
2021/12/08 02:13:05;;;;;;;21.35;4.22;;;;;;;8.86;68.27;97394.59;4912858;29;20124;-95
2021/12/08 02:15:31;;;;;;;30.10;3.25;;;;;;;9.26;67.38;97396.28;4917289;29;20056;-96
2021/12/08 02:17:57;;;;;;;20.48;2.47;;;;;;;9.33;67.46;97393.78;4922002;29;20024;-96
2021/12/08 02:20:25;;;;;;;16.30;3.88;;;;;;;9.17;67.93;97399.91;4921882;29;20024;-96
2021/12/08 02:22:50;;;;;;;20.77;2.63;;;;;;;9.16;67.80;97400.06;4913920;29;20057;-95
2021/12/08 02:25:19;;;;;;;23.17;3.20;;;;;;;9.03;67.91;97400.63;4915504;29;20037;-95
2021/12/08 02:27:45;;;;;;;18.67;3.17;;;;;;;9.17;67.89;97406.94;4918320;29;20102;-95
2021/12/08 02:30:20;;;;;;;14.55;1.77;;;;;;;9.21;67.75;97409.06;4923139;29;20028;-96
2021/12/08 02:47:43;;;;;;;24.60;2.53;;;;;;;9.26;67.50;97430.31;4917071;29;20039;-95
2021/12/08 02:49:25;;;;;;;26.50;3.15;;;;;;;9.26;67.69;97438.16;4921616;29;20044;-96
2021/12/08 02:51:53;;;;;;;20.63;2.58;;;;;;;8.99;67.80;97444.63;4908410;29;20538;-95
2021/12/08 02:54:20;;;;;;;22.63;3.28;;;;;;;9.22;68.11;97451.75;4920859;29;20036;-95
2021/12/08 02:56:45;;;;;;;32.75;4.57;;;;;;;9.23;67.25;97453.38;4918812;29;20184;-95
2021/12/08 02:59:11;;;;;;;23.02;2.80;;;;;;;9.14;68.53;97460.44;4909920;29;20476;-95
2021/12/08 03:01:38;;;;;;;17.65;3.13;;;;;;;9.22;67.24;97446.50;4904551;29;20024;-95
2021/12/08 03:04:06;;;;;;;23.48;2.78;;;;;;;9.12;67.39;97458.00;4903317;29;20083;-95
2021/12/08 03:06:32;;;;;;;26.67;3.40;;;;;;;9.39;66.41;97444.66;4911467;29;20035;-95
2021/12/08 03:08:58;;;;;;;21.83;4.53;;;;;;;9.27;67.35;97459.91;4903348;29;20077;-95
2021/12/08 03:11:25;;;;;;;25.75;2.78;;;;;;;9.17;66.80;97469.78;4914311;29;20036;-95
2021/12/08 03:14:07;;;;;;;33.88;3.35;;;;;;;9.03;68.09;97495.63;4922344;29;20063;-95
2021/12/08 03:16:34;;;;;;;23.95;3.78;;;;;;;9.01;68.89;97502.03;4914491;29;20043;-95
2021/12/08 03:19:00;;;;;;;26.42;4.00;;;;;;;8.68;68.69;97513.31;4922336;29;20032;-96
2021/12/08 03:21:30;;;;;;;22.35;2.90;;;;;;;8.92;68.63;97506.44;4915001;29;20024;-96
2021/12/08 03:24:21;;;;;;;18.50;2.70;;;;;;;8.81;68.66;97501.56;4921788;29;20091;-95
2021/12/08 03:26:57;;;;;;;17.85;2.55;;;;;;;8.48;69.88;97514.59;4902540;29;20033;-96
2021/12/08 03:29:29;;;;;;;24.10;3.03;;;;;;;8.83;68.24;97510.88;4920522;29;20047;-96
2021/12/08 03:32:04;;;;;;;32.80;4.38;;;;;;;9.21;67.38;97512.94;4904371;29;20071;-96
2021/12/08 03:34:31;;;;;;;18.35;2.55;;;;;;;9.42;67.14;97510.63;4908334;29;20024;-96
2021/12/08 03:36:57;;;;;;;31.00;3.58;;;;;;;9.10;67.60;97507.09;4904525;29;20032;-95
2021/12/08 03:39:22;;;;;;;24.63;3.30;;;;;;;9.28;66.71;97503.44;4907208;29;20028;-94
2021/12/08 03:41:48;;;;;;;22.35;3.30;;;;;;;9.24;67.43;97483.81;4907014;29;20020;-95
2021/12/08 03:44:14;;;;;;;29.50;3.08;;;;;;;9.07;67.43;97481.22;4907572;29;20115;-95
2021/12/08 03:46:41;;;;;;;19.15;3.05;;;;;;;9.35;66.02;97483.47;4920983;29;20059;-96
2021/12/08 03:49:15;;;;;;;23.90;3.67;;;;;;;8.92;68.05;97481.06;4917480;29;20036;-96
2021/12/08 03:51:41;;;;;;;21.83;3.25;;;;;;;9.18;67.30;97495.75;4902458;29;20451;-94
2021/12/08 03:54:08;;;;;;;26.60;4.63;;;;;;;9.37;66.79;97512.09;4904117;29;20100;-94
2021/12/08 03:56:34;;;;;;;30.48;3.17;;;;;;;9.25;67.47;97517.69;4908253;29;20078;-95
2021/12/08 03:59:00;;;;;;;24.08;2.95;;;;;;;8.82;67.58;97539.81;4921162;29;20379;-96
2021/12/08 04:01:25;;;;;;;23.52;3.47;;;;;;;9.34;67.10;97531.59;4918004;29;20044;-95
2021/12/08 04:03:51;;;;;;;19.05;3.08;;;;;;;8.49;69.06;97526.69;4911324;29;20092;-95
2021/12/08 04:06:34;;;;;;;17.75;2.25;;;;;;;9.04;66.92;97533.91;4913897;29;20032;-96
2021/12/08 04:09:05;;;;;;;18.55;2.80;;;;;;;8.80;68.23;97547.00;4913057;29;20033;-96
2021/12/08 04:11:30;;;;;;;25.40;3.17;;;;;;;9.23;66.84;97537.97;4905620;29;20025;-95
2021/12/08 04:14:04;;;;;;;19.52;2.90;;;;;;;8.98;67.94;97542.41;4903714;29;20427;-95
2021/12/08 04:16:35;;;;;;;20.92;4.32;;;;;;;9.13;68.54;97551.25;4917801;29;20036;-95
2021/12/08 04:19:04;;;;;;;31.63;3.90;;;;;;;9.07;68.86;97554.53;4917704;29;20029;-96
2021/12/08 04:21:31;;;;;;;24.88;4.20;;;;;;;9.36;67.04;97558.44;4907533;29;20036;-95
2021/12/08 04:23:56;;;;;;;32.70;4.13;;;;;;;8.97;68.48;97564.34;4912109;29;20562;-95
2021/12/08 04:26:30;;;;;;;23.33;3.50;;;;;;;9.05;68.01;97568.75;4907906;29;20039;-96
2021/12/08 04:28:56;;;;;;;24.45;2.65;;;;;;;9.63;66.81;97559.81;4902068;29;20033;-95
2021/12/08 04:31:33;;;;;;;24.52;3.03;;;;;;;9.55;67.03;97561.66;4918687;29;20038;-95
2021/12/08 04:34:03;;;;;;;27.98;3.88;;;;;;;9.04;67.93;97554.03;4921424;29;20024;-96
2021/12/08 04:36:42;;;;;;;26.02;3.05;;;;;;;9.27;67.08;97565.47;4922721;29;20153;-96
2021/12/08 04:39:16;;;;;;;22.25;4.07;;;;;;;9.52;66.61;97573.28;4924050;29;20028;-96
2021/12/08 04:41:47;;;;;;;29.27;3.20;;;;;;;9.36;66.61;97568.91;4925250;29;20025;-96
2021/12/08 04:47:14;;;;;;;17.25;3.45;;;;;;;9.24;66.88;97581.50;4921508;29;20051;-94
2021/12/08 05:04:02;;;;;;;20.55;3.05;;;;;;;9.00;65.13;97574.47;4904919;29;20552;-96
2021/12/08 05:08:59;;;;;;;27.48;3.63;;;;;;;9.09;65.24;97597.06;4925708;29;20091;-94
2021/12/08 05:11:33;;;;;;;31.90;3.90;;;;;;;9.06;65.40;97605.25;4923370;29;20494;-95
2021/12/08 05:14:16;;;;;;;22.73;2.63;;;;;;;8.83;65.57;97597.22;4927018;29;20035;-96
2021/12/08 05:16:44;;;;;;;22.27;3.15;;;;;;;8.66;66.36;97606.81;4908463;29;20039;-96
2021/12/08 05:19:16;;;;;;;36.33;4.25;;;;;;;8.79;66.02;97608.13;4873809;29;20040;-96
2021/12/08 05:21:44;;;;;;;;;;;;;;;8.89;65.31;97614.06;4914638;29;20091;-96
2021/12/08 05:24:19;;;;;;;19.90;3.08;;;;;;;8.80;65.71;97615.03;4908398;29;19920;-96
2021/12/08 05:26:59;;;;;;;25.05;3.60;;;;;;;9.34;64.18;97612.75;4902734;29;20041;-95
2021/12/08 05:29:32;;;;;;;30.58;3.42;;;;;;;9.43;63.80;97616.19;4902439;29;20064;-95
2021/12/08 05:31:58;;;;;;;19.65;2.45;;;;;;;9.56;63.35;97608.66;4914503;29;20028;-95
2021/12/08 05:34:26;;;;;;;23.70;3.53;;;;;;;9.24;63.38;97601.63;4919844;29;20092;-96
2021/12/08 05:36:52;;;;;;;36.75;4.18;;;;;;;8.97;64.76;97616.69;4903597;29;20032;-96
2021/12/08 05:39:22;;;;;;;23.27;3.50;;;;;;;9.22;64.66;97619.28;4918777;29;20047;-96
2021/12/08 05:41:52;;;;;;;23.50;4.38;;;;;;;9.27;64.11;97607.34;4901018;29;20047;-95
2021/12/08 05:44:18;;;;;;;22.10;4.38;;;;;;;9.38;63.99;97621.94;4920506;29;20028;-96
2021/12/08 05:46:50;;;;;;;31.63;4.05;;;;;;;9.61;63.23;97624.66;4916121;29;20084;-96
2021/12/08 05:49:17;;;;;;;23.92;3.40;;;;;;;9.33;63.22;97638.13;4917214;29;20052;-96
2021/12/08 05:51:44;;;;;;;29.42;2.97;;;;;;;9.35;63.39;97630.09;4918346;29;20032;-95
2021/12/08 05:54:20;;;;;;;24.27;3.30;;;;;;;9.13;64.28;97632.38;4922712;29;20095;-95
2021/12/08 05:56:48;;;;;;;27.90;3.92;;;;;;;9.25;63.39;97650.41;4920026;29;20132;-95
2021/12/08 05:59:15;;;;;;;29.77;5.03;;;;;;;9.43;62.98;97642.38;4901516;29;20079;-96
2021/12/08 06:01:47;;;;;;;21.40;3.42;;;;;;;9.05;63.77;97634.19;4913441;29;20509;-96
2021/12/08 06:04:12;;;;;;;;;;;;;;;9.33;62.32;97626.81;4937213;29;20117;-95
2021/12/08 06:06:39;;;;;;;21.50;2.88;;;;;;;9.69;61.11;97636.94;4917682;29;19919;-96
2021/12/08 06:09:08;;;;;;;21.77;3.70;;;;;;;9.48;61.70;97635.66;4906187;29;20036;-95
2021/12/08 06:11:34;;;;;;;18.13;2.47;;;;;;;9.57;61.93;97623.34;4919024;29;20079;-96
2021/12/08 06:14:00;;;;;;;19.40;3.00;;;;;;;8.99;62.20;97630.41;4923087;29;20028;-95
2021/12/08 06:16:33;;;;;;;28.13;5.15;;;;;;;8.89;63.26;97651.50;4925831;29;20092;-96
2021/12/08 06:18:59;;;;;;;35.55;3.78;;;;;;;9.40;62.24;97637.44;4924597;29;20092;-96
2021/12/08 06:21:28;;;;;;;31.17;3.22;;;;;;;9.61;61.02;97652.66;4914639;29;20083;-95
2021/12/08 06:23:56;;;;;;;19.90;2.83;;;;;;;9.33;61.66;97647.78;4924005;29;20060;-95
2021/12/08 06:26:24;;;;;;;29.88;4.32;;;;;;;9.12;62.26;97653.47;4925922;29;20028;-95
2021/12/08 06:28:50;;;;;;;32.90;4.57;;;;;;;8.90;63.36;97674.06;4921935;29;20085;-96
2021/12/08 06:31:18;;;;;;;13.55;2.75;;;;;;;9.16;62.13;97644.31;5289667;23;20026;-96
2021/12/08 06:33:44;;;;;;;23.17;4.63;;;;;;;9.38;61.04;97650.72;4938166;29;20051;-96
2021/12/08 06:36:19;;;;;;;21.48;3.50;;;;;;;8.92;62.06;97652.97;4935918;29;20123;-96
2021/12/08 06:38:46;;;;;;;17.65;2.47;;;;;;;9.21;61.35;97654.31;4921992;29;20048;-96
2021/12/08 06:41:17;;;;;;;31.05;3.22;;;;;;;9.49;59.75;97665.28;4925536;29;20038;-96
2021/12/08 06:43:49;;;;;;;31.05;4.25;;;;;;;9.02;62.60;97673.75;4925142;29;20043;-96
2021/12/08 06:46:15;;;;;;;25.67;4.63;;;;;;;9.26;60.65;97662.50;4921356;29;20093;-96
2021/12/08 06:48:48;;;;;;;21.27;3.13;;;;;;;9.71;60.52;97682.94;4931859;29;20046;-96
2021/12/08 06:51:23;;;;;;;21.10;3.03;;;;;;;10.02;59.71;97684.06;4925564;29;20078;-96
2021/12/08 06:53:53;;;;;;;22.52;3.28;;;;;;;9.73;59.40;97669.69;4925630;29;20037;-96
2021/12/08 06:56:32;;;;;;;29.70;3.25;;;;;;;9.65;60.14;97667.06;4936078;29;20088;-96
2021/12/08 06:59:01;;;;;;;19.27;4.22;;;;;;;9.20;62.01;97703.25;4941281;29;20407;-96
2021/12/08 07:04:27;;;;;;;20.20;3.15;;;;;;;9.63;60.71;97693.44;4940199;29;20063;-96
2021/12/08 07:07:02;;;;;;;19.80;3.05;;;;;;;9.20;62.04;97698.03;4941075;29;20043;-96
2021/12/08 07:09:40;;;;;;;32.30;4.55;;;;;;;9.66;61.15;97698.34;4920588;29;20048;-96
2021/12/08 07:12:24;;;;;;;20.05;3.38;;;;;;;9.46;61.43;97689.19;4937662;29;20047;-96
2021/12/08 07:15:06;;;;;;;23.88;2.80;;;;;;;9.39;60.62;97725.69;4936311;29;20117;-96
2021/12/08 07:17:33;;;;;;;;;;;;;;;9.68;62.04;97729.63;4930519;29;20035;-96
2021/12/08 07:20:14;;;;;;;26.88;3.08;;;;;;;9.55;62.07;97717.00;4928063;29;19947;-96
2021/12/08 07:22:44;;;;;;;28.60;4.20;;;;;;;9.49;61.76;97710.63;4937974;29;20020;-96
2021/12/08 07:25:12;;;;;;;22.65;3.22;;;;;;;9.65;61.83;97714.22;4939812;29;20052;-96
2021/12/08 07:27:39;;;;;;;22.48;3.83;;;;;;;9.31;61.58;97723.06;4921118;29;20039;-96
2021/12/08 07:30:15;;;;;;;19.85;3.58;;;;;;;9.63;61.27;97742.41;4905833;29;20040;-96
2021/12/08 07:32:41;;;;;;;19.73;3.08;;;;;;;9.86;60.86;97751.22;4939097;28;20037;-96
2021/12/08 07:35:21;;;;;;;22.83;2.88;;;;;;;9.80;61.23;97749.28;4919750;29;20031;-96
2021/12/08 07:37:48;;;;;;;21.92;3.25;;;;;;;9.28;61.57;97739.06;4919482;29;20088;-96
2021/12/08 07:40:41;;;;;;;19.67;2.45;;;;;;;9.77;60.95;97733.88;4924353;29;20052;-96
2021/12/08 07:43:12;;;;;;;17.13;2.88;;;;;;;9.50;61.00;97756.00;4940845;29;20127;-96
2021/12/08 07:45:54;;;;;;;24.98;2.75;;;;;;;9.69;60.46;97746.97;5095051;23;20048;-96
2021/12/08 07:48:24;;;;;;;18.27;2.33;;;;;;;9.28;59.40;97750.41;4938490;29;20028;-96
2021/12/08 07:50:54;;;;;;;14.30;1.85;;;;;;;9.36;59.31;97788.03;4942636;28;20036;-96
2021/12/08 08:03:42;;;;;;;26.70;2.70;;;;;;;9.26;59.12;97796.03;5190801;23;20053;-96
2021/12/08 08:06:14;;;;;;;20.50;2.55;;;;;;;9.70;58.86;97787.94;5084134;23;20503;-96
2021/12/08 08:08:40;;;;;;;22.42;2.67;;;;;;;9.81;59.78;97813.78;4937625;28;20031;-95
2021/12/08 08:11:14;;;;;;;18.45;3.15;;;;;;;9.27;59.58;97789.81;4942482;29;20025;-96
2021/12/08 08:13:40;;;;;;;16.50;3.17;;;;;;;9.66;59.84;97818.06;4917973;29;20033;-96
2021/12/08 08:16:14;;;;;;;22.65;3.08;;;;;;;9.52;58.53;97809.03;4914850;29;20028;-95
2021/12/08 08:18:44;;;;;;;17.70;2.58;;;;;;;9.90;59.22;97820.69;4910264;29;20074;-95
2021/12/08 08:21:14;;;;;;;24.75;3.72;;;;;;;9.77;59.16;97822.97;4910102;29;20004;-96
2021/12/08 08:23:39;;;;;;;20.27;3.10;;;;;;;9.70;59.57;97807.09;4909428;29;20036;-95
2021/12/08 08:26:09;;;;;;;19.58;2.55;;;;;;;10.07;58.45;97811.03;4906665;29;20536;-95
2021/12/08 08:28:35;;;;;;;14.50;2.33;;;;;;;9.38;58.73;97836.66;4913590;29;20056;-96
2021/12/08 08:31:06;;;;;;;25.00;3.17;;;;;;;9.95;58.20;97824.63;4921411;29;20023;-95
2021/12/08 08:33:36;;;;;;;20.08;3.00;;;;;;;9.57;58.28;97832.94;4914358;29;20464;-96
2021/12/08 08:36:07;;;;;;;16.85;3.38;;;;;;;10.07;57.36;97824.13;4920704;29;20032;-95
2021/12/08 08:38:44;;;;;;;15.98;3.53;;;;;;;9.98;57.72;97824.31;4914651;29;20467;-95
2021/12/08 08:41:17;;;;;;;23.73;2.75;;;;;;;9.61;57.36;97836.84;4914440;29;20292;-93
2021/12/08 08:43:43;;;;;;;16.52;2.67;;;;;;;9.60;57.52;97858.00;4912171;29;20451;-95
2021/12/08 08:46:14;;;;;;;29.08;3.38;;;;;;;9.89;57.04;97881.13;4919974;29;20096;-94
2021/12/08 08:48:47;;;;;;;15.50;2.42;;;;;;;10.07;57.24;97866.09;4905354;29;20514;-95
2021/12/08 08:51:33;;;;;;;17.30;2.60;;;;;;;9.95;56.79;97863.94;4913347;29;20068;-96
2021/12/08 08:54:06;;;;;;;20.48;3.17;;;;;;;9.93;57.33;97867.56;4915279;29;20040;-96
2021/12/08 08:56:42;;;;;;;25.27;3.72;;;;;;;10.03;58.12;97866.56;4977995;23;20588;-95
2021/12/08 08:59:17;;;;;;;17.65;3.15;;;;;;;10.03;57.87;97879.66;4941457;29;20026;-94
2021/12/08 09:01:48;;;;;;;16.33;2.85;;;;;;;9.72;58.38;97893.41;4936032;29;20023;-96
2021/12/08 09:04:20;;;;;;;15.05;2.53;;;;;;;9.84;57.91;97868.50;4921189;29;20035;-95
2021/12/08 09:06:48;;;;;;;17.60;2.33;;;;;;;9.74;56.87;97891.44;4920261;29;20507;-94
2021/12/08 09:09:20;;;;;;;20.05;3.00;;;;;;;9.83;57.93;97885.22;4921807;29;20031;-95
2021/12/08 09:12:01;;;;;;;15.73;2.45;;;;;;;10.18;56.00;97885.09;4924653;29;20041;-96
2021/12/08 09:14:39;;;;;;;16.42;3.05;;;;;;;10.29;56.02;97885.59;4939402;29;20035;-96
2021/12/08 09:19:51;;;;;;;14.48;3.10;;;;;;;10.17;56.51;97878.19;4903021;29;20024;-95
2021/12/08 09:22:25;;;;;;;23.73;2.80;;;;;;;10.32;56.42;97893.16;4899595;29;20067;-93
2021/12/08 09:24:59;;;;;;;15.98;3.63;;;;;;;10.66;55.56;97901.81;4900287;29;20123;-95
2021/12/08 09:27:29;;;;;;;19.33;2.78;;;;;;;10.42;56.44;97918.41;4900573;29;20024;-94
2021/12/08 09:30:00;;;;;;;20.38;2.83;;;;;;;10.45;57.06;97907.59;4900234;29;20029;-95
2021/12/08 09:32:41;;;;;;;18.40;2.78;;;;;;;10.12;57.22;97915.41;4901110;29;20084;-95
2021/12/08 09:35:13;;;;;;;25.23;2.53;;;;;;;10.57;56.63;97919.38;4900556;29;20037;-94
2021/12/08 09:37:45;;;;;;;23.10;3.95;;;;;;;10.64;56.38;97915.13;4902223;29;20116;-95
2021/12/08 09:40:16;;;;;;;;;;;;;;;10.93;56.74;97936.56;4914264;29;20035;-96
2021/12/08 09:42:46;;;;;;;24.23;4.88;;;;;;;10.48;58.43;97923.78;4907952;29;19930;-95
2021/12/08 09:47:47;;;;;;;20.95;3.70;;;;;;;10.06;58.35;97916.06;5825348;23;20683;-96
2021/12/08 09:50:14;;;;;;;25.20;3.67;;;;;;;10.59;56.94;97953.34;4937790;29;20035;-93
2021/12/08 09:52:42;;;;;;;24.80;3.60;;;;;;;10.51;56.88;97962.84;4934739;29;20027;-91
2021/12/08 09:55:10;;;;;;;25.98;2.92;;;;;;;10.81;56.09;97973.66;4931892;29;20028;-95
2021/12/08 09:57:36;;;;;;;21.25;5.13;;;;;;;10.47;56.33;97960.72;4938000;29;20090;-96
2021/12/08 12:29:35;;;;;;;26.00;2.70;;;;;;;10.86;53.88;98172.66;5034628;23;20032;-87
2021/12/08 13:26:20;;;;;;;16.85;2.15;;;;;;;10.88;52.71;98239.81;4935755;29;20047;-94
2021/12/08 13:28:56;;;;;;;13.80;3.35;;;;;;;11.30;51.91;98241.53;4938818;29;20032;-91
2021/12/08 13:34:07;;;;;;;18.35;3.22;;;;;;;11.21;51.46;98246.94;4919278;29;20042;-95
2021/12/08 13:36:38;;;;;;;18.30;3.85;;;;;;;11.26;51.64;98255.16;4918982;29;20032;-93
2021/12/08 13:39:03;;;;;;;20.58;3.47;;;;;;;10.96;52.39;98262.63;4919958;29;20052;-96
2021/12/08 13:41:33;;;;;;;20.27;2.58;;;;;;;11.16;52.50;98271.06;4937472;29;20028;-93
2021/12/08 13:44:02;;;;;;;17.30;2.72;;;;;;;10.71;52.70;98274.84;4936900;29;20024;-93
2021/12/08 13:46:49;;;;;;;13.77;2.33;;;;;;;11.11;51.94;98279.41;4916441;29;20485;-94
2021/12/08 13:49:18;;;;;;;16.45;2.80;;;;;;;11.25;50.92;98287.66;4919223;29;20040;-93
2021/12/08 13:52:07;;;;;;;16.35;2.25;;;;;;;11.19;51.26;98285.66;4930693;29;20136;-93
2021/12/08 13:54:36;;;;;;;23.92;3.20;;;;;;;10.58;51.71;98293.63;4932796;29;20439;-92
2021/12/08 13:57:24;;;;;;;18.20;3.72;;;;;;;10.96;51.77;98286.25;4917921;29;20016;-93
2021/12/08 13:59:54;;;;;;;19.15;2.67;;;;;;;11.02;51.40;98292.66;4919165;29;20046;-93
2021/12/08 14:02:24;;;;;;;20.13;2.90;;;;;;;10.69;52.17;98290.72;4926096;29;20553;-93
2021/12/08 14:05:17;;;;;;;15.00;2.25;;;;;;;11.21;51.73;98289.78;4936351;29;20039;-93
2021/12/08 14:07:58;;;;;;;27.35;3.17;;;;;;;10.96;51.42;98299.41;4919081;29;20529;-94
2021/12/08 14:10:29;;;;;;;14.73;3.50;;;;;;;10.78;52.35;98309.16;4917703;29;20032;-94
2021/12/08 14:13:00;;;;;;;20.10;3.50;;;;;;;10.97;52.67;98308.09;4926996;29;20032;-92
2021/12/08 14:15:32;;;;;;;17.95;3.25;;;;;;;10.90;52.68;98302.66;4922998;29;20768;-92
2021/12/08 14:18:28;;;;;;;18.45;2.67;;;;;;;11.07;52.00;98314.03;4931932;29;20048;-92
2021/12/08 14:21:00;;;;;;;23.42;3.60;;;;;;;10.79;52.88;98313.44;4920898;29;20024;-93
2021/12/08 14:23:31;;;;;;;18.00;2.85;;;;;;;10.96;52.81;98317.78;4916719;29;20020;-92
2021/12/08 14:26:25;;;;;;;19.67;2.65;;;;;;;10.74;52.56;98318.31;4915681;29;20091;-91
2021/12/08 14:28:57;;;;;;;21.85;2.78;;;;;;;11.04;52.15;98325.69;4918501;29;20127;-92
2021/12/08 14:31:31;;;;;;;20.60;2.95;;;;;;;10.74;52.47;98344.56;4916763;29;20031;-91
2021/12/08 14:34:03;;;;;;;20.42;3.03;;;;;;;10.35;53.00;98330.06;4916784;29;20048;-92
2021/12/08 14:36:36;;;;;;;16.92;2.40;;;;;;;10.77;51.81;98336.38;4921345;29;20040;-92
2021/12/08 14:39:10;;;;;;;15.07;2.63;;;;;;;10.97;51.65;98345.66;4916907;29;20024;-91
2021/12/08 14:41:37;;;;;;;20.73;2.78;;;;;;;10.99;51.47;98356.84;4916328;29;20082;-92
2021/12/08 14:44:17;;;;;;;16.15;2.10;;;;;;;10.84;52.54;98350.50;4916622;29;20020;-92
2021/12/08 14:46:44;;;;;;;19.25;2.30;;;;;;;10.31;53.08;98365.47;4926767;29;20074;-91
2021/12/08 14:49:16;;;;;;;21.85;2.72;;;;;;;10.39;53.52;98367.31;4931584;29;20024;-91
2021/12/08 14:51:42;;;;;;;14.98;2.72;;;;;;;10.37;54.37;98384.97;4932223;29;20367;-91
2021/12/08 14:54:22;;;;;;;16.15;2.38;;;;;;;10.54;52.73;98368.38;4925538;29;20043;-93
2021/12/08 14:57:09;;;;;;;20.63;2.28;;;;;;;10.46;53.15;98376.22;4935361;29;20088;-94
2021/12/08 14:59:39;;;;;;;31.88;3.00;;;;;;;10.59;51.79;98378.44;4936957;29;20035;-93
2021/12/08 15:10:16;;;;;;;16.98;2.75;;;;;;;9.92;52.95;98405.06;4989236;23;20060;-93
2021/12/08 15:12:45;;;;;;;18.35;2.78;;;;;;;10.23;53.09;98404.69;4938462;29;20040;-94
2021/12/08 15:15:12;;;;;;;17.35;3.22;;;;;;;10.16;53.89;98404.47;4939713;29;20042;-95
2021/12/08 15:17:38;;;;;;;21.02;3.70;;;;;;;10.22;52.88;98410.91;4940029;29;20071;-95
2021/12/08 15:20:04;;;;;;;17.67;3.13;;;;;;;10.19;53.81;98419.06;4939983;29;20450;-95
2021/12/08 15:22:38;;;;;;;16.75;2.60;;;;;;;9.92;54.08;98429.47;4938240;29;20023;-94
2021/12/08 15:25:30;;;;;;;16.10;2.65;;;;;;;10.04;53.68;98443.19;4939238;29;20027;-94
2021/12/08 15:27:57;;;;;;;18.58;3.30;;;;;;;10.15;53.62;98449.19;4939322;29;20375;-94
2021/12/08 15:30:41;;;;;;;13.68;2.35;;;;;;;10.30;53.39;98456.41;4940454;29;20555;-95
2021/12/08 15:33:09;;;;;;;18.23;2.40;;;;;;;10.15;53.09;98465.78;4939694;29;20019;-94
2021/12/08 15:35:35;;;;;;;19.88;2.88;;;;;;;10.47;52.43;98464.44;4939676;29;20501;-95
2021/12/08 15:38:01;;;;;;;17.95;2.47;;;;;;;10.50;52.58;98469.38;4936254;28;20037;-94
2021/12/08 15:40:32;;;;;;;14.52;2.92;;;;;;;10.25;53.41;98471.78;4939701;29;20363;-95
2021/12/08 15:42:59;;;;;;;;;;;;;;;10.60;51.74;98466.66;4938473;29;20382;-95
2021/12/08 15:45:27;;;;;;;15.75;3.28;;;;;;;10.73;52.34;98463.69;4939354;29;19922;-95
2021/12/08 15:47:52;;;;;;;18.65;3.15;;;;;;;10.44;53.16;98475.25;4939102;29;20032;-95
2021/12/08 15:50:36;;;;;;;14.40;1.73;;;;;;;10.62;52.56;98481.28;4938445;29;20024;-95
2021/12/08 15:53:03;;;;;;;8.45;1.92;;;;;;;10.58;51.53;98479.94;4937430;29;20103;-95
2021/12/08 15:55:32;;;;;;;16.10;2.58;;;;;;;10.69;51.09;98490.22;4918911;29;20501;-95
2021/12/08 15:58:10;;;;;;;16.42;2.53;;;;;;;10.02;52.59;98481.03;4918286;29;20035;-95
2021/12/08 16:00:44;;;;;;;17.02;2.28;;;;;;;10.45;51.65;98484.78;4918527;29;20028;-96
2021/12/08 16:03:10;;;;;;;14.93;2.22;;;;;;;10.61;51.38;98481.47;4918387;29;20031;-95
2021/12/08 16:05:36;;;;;;;15.52;2.33;;;;;;;10.15;52.55;98484.13;4919483;29;20032;-94
2021/12/08 16:08:03;;;;;;;16.58;2.78;;;;;;;9.99;52.77;98486.56;4922651;29;20623;-95
2021/12/08 16:10:31;;;;;;;18.05;3.33;;;;;;;10.36;51.73;98494.34;4936610;29;20040;-95
2021/12/08 16:13:05;;;;;;;23.92;3.50;;;;;;;9.85;53.62;98495.75;4938341;29;20055;-94
2021/12/08 16:15:39;;;;;;;12.95;2.08;;;;;;;10.19;52.46;98497.75;4938227;29;20094;-95
2021/12/08 16:18:05;;;;;;;17.75;2.67;;;;;;;10.16;52.41;98503.31;4938078;29;20067;-96
2021/12/08 16:20:32;;;;;;;11.02;2.20;;;;;;;10.21;52.98;98501.03;4923712;29;20024;-93
2021/12/08 16:22:58;;;;;;;16.15;2.50;;;;;;;10.12;51.73;98515.88;4925014;29;20495;-93
2021/12/08 16:25:24;;;;;;;17.27;3.53;;;;;;;10.29;52.30;98515.09;4924414;29;20032;-94
2021/12/08 16:27:56;;;;;;;35.42;3.08;;;;;;;9.99;54.33;98523.28;4937461;29;20327;-93
2021/12/08 16:30:23;;;;;;;23.38;3.60;;;;;;;10.20;54.41;98515.97;4935992;29;20432;-93
2021/12/08 16:32:49;;;;;;;27.27;4.30;;;;;;;9.79;54.82;98518.13;4935184;29;20035;-93